Main page
METAR-TAF:

METAR-TAF

Airports :

Ahvaz International Airport

Ahvaz, Iran

latitude: 31-20N, longitude: 048-40E, elevation: 20 m

Current weather observation

The report was made 11 minutes ago, at 03:00 UTC
Wind 4 kt from the West
Temperature 29°C
Humidity 29%
Pressure 999 hPa
Visibility: 8000 m

METAR: OIAW 240300Z 27004KT 8000 NSC 29/09 Q0999

Time: 07:41 (03:11 UTC)

Forecast

The report was made 4 hours and 11 minutes ago, at 23:00 UTC
Forecast valid from 24 at 00 UTC to 25 at 06 UTC
Wind 8 kt from the West
Visibility: 6000 m

TAF: OIAW 232300Z 2400/2506 28004MPS 6000 NSC

Weather observations and forecasts of more than 4000 airports (METAR and TAF reports).

The available stations are represented by yellow and red dots on the map.

Hover mouse over dot to see the name of the station.

Then click to see weather observations and forecasts.

To change the map : click on the green buttons with a black cross to zoom in, on the green button with a dash to zoom out, or on the green arrows for adjacent maps.


METAR-TAF: